Argonia, Kansas
Current Conditions -  °F | °C
As of 11:53 AM on Tuesday 21 Oct 2014 (Local Time) from KICT Reporting Station
Few Clouds Few Clouds  
Wind Chill: 75°   Ceiling: Unl
Heat Index: 75°   Visibility: 10mi
Dew Point: 53°   Wind: 15mph
Humidity: 46%   Direction: 140°SE
Pressure: 30.1"   Gusts: NA
Location:  37.27°N, 97.77°W
Report Text: KICT 211653Z 14013KT 10SM FEW050 24/12 A3010 RMK AO2 SLP183 T02390117
Loading
Personal Weather Stations






























Interactive Weather Map New forecast layout! Learn more

10-Day Weather Forecast

Advertisements
Track Severe Weather on mobile